Terminal Aerodrome Forecast
Issued by NWS

Home | Current Version | Previous Version | Text Only | Print | Product List | Glossary On
Versions: 1 2 3 4 5 6 7 8 9 10 11 12 13 14 15 16 17 18 19 20 21 22 23 24 25 26 27 28 29 30
000
FTUS44 KHGX 161138
TAFLBX
TAF
KLBX 161138Z 1612/1712 00000KT P6SM OVC080
     FM161400 12007KT P6SM BKN050 OVC100
     FM161800 10010KT P6SM VCSH OVC050
     FM162200 08012KT P6SM -SHRA SCT025 OVC050
     FM170100 13013G21KT 4SM TSRA SCT007 OVC015CB
     FM170500 36007KT P6SM SCT010 OVC020
     FM171000 07003KT 4SM BR BKN007=

USA.gov is the U.S. government's official web portal to all federal, state and local government web resources and services.